Time;durP1;ratioP1;P1;durP2;ratioP2;P2;SDS_P1;SDS_P2;PMS_P1;PMS_P2;Temp;Humidity;BMP_temperature;BMP_pressure;BME280_temperature;BME280_humidity;BME280_pressure;Samples;Min_cycle;Max_cycle;Signal;HPM_P1;HPM_P2
2022/09/03 00:02:26;;;;;;;6.53;2.35;;;;;;;17.56;47.04;100886.00;5261795;28;20029;-77
2022/09/03 00:05:18;;;;;;;6.10;3.00;;;;;;;17.47;46.37;100884.63;5276449;28;20039;-77
2022/09/03 00:08:27;;;;;;;6.03;2.50;;;;;;;17.47;46.60;100889.03;5282643;28;20074;-77
2022/09/03 00:11:24;;;;;;;11.52;3.47;;;;;;;17.35;46.27;100887.72;5282294;28;20081;-77
2022/09/03 00:13:58;;;;;;;7.95;2.53;;;;;;;17.36;47.70;100884.19;5277724;28;20448;-77
2022/09/03 00:16:41;;;;;;;7.72;2.92;;;;;;;17.23;47.85;100875.06;5282454;28;20034;-77
2022/09/03 00:19:17;;;;;;;5.55;2.80;;;;;;;17.37;47.64;100878.00;5281852;28;20040;-76
2022/09/03 00:21:56;;;;;;;8.25;3.15;;;;;;;17.03;48.10;100879.28;5282698;28;20136;-76
2022/09/03 00:24:35;;;;;;;4.53;2.42;;;;;;;17.19;47.81;100879.56;5282976;28;20083;-77
2022/09/03 00:27:14;;;;;;;8.25;3.05;;;;;;;17.26;47.51;100881.06;5282666;28;20025;-77
2022/09/03 00:29:51;;;;;;;5.40;2.63;;;;;;;17.17;48.60;100876.13;5282404;28;20158;-77
2022/09/03 00:32:28;;;;;;;8.52;2.58;;;;;;;16.94;48.73;100880.50;5264415;28;20025;-76
2022/09/03 00:35:10;;;;;;;8.20;2.63;;;;;;;17.10;48.41;100874.69;5271932;28;20043;-77
2022/09/03 00:37:42;;;;;;;6.47;2.70;;;;;;;16.87;48.93;100878.16;5280581;28;20025;-77
2022/09/03 00:40:30;;;;;;;10.35;2.85;;;;;;;16.92;48.76;100878.84;5279481;28;20032;-77
2022/09/03 00:43:09;;;;;;;9.02;3.03;;;;;;;16.80;48.83;100887.19;5280789;28;20032;-77
2022/09/03 00:45:58;;;;;;;9.30;2.92;;;;;;;16.75;48.94;100887.34;5281807;28;20354;-77
2022/09/03 00:48:40;;;;;;;4.72;2.70;;;;;;;16.76;49.31;100881.19;5280833;28;20024;-77
2022/09/03 00:51:49;;;;;;;4.82;2.60;;;;;;;16.78;49.14;100877.56;5282227;28;20400;-77
2022/09/03 00:54:39;;;;;;;9.18;3.63;;;;;;;16.60;49.77;100878.25;5286480;28;20144;-76
2022/09/03 00:57:49;;;;;;;9.20;2.88;;;;;;;16.49;48.96;100870.75;5286397;28;20361;-77
2022/09/03 01:00:21;;;;;;;6.32;2.83;;;;;;;16.55;50.55;100877.53;5275011;28;20064;-77
2022/09/03 01:02:55;;;;;;;5.85;3.20;;;;;;;16.49;50.93;100873.38;5286488;28;20028;-78
2022/09/03 01:06:10;;;;;;;8.80;3.38;;;;;;;16.49;49.75;100875.16;5285754;28;20060;-77
2022/09/03 01:08:43;;;;;;;7.82;3.05;;;;;;;16.41;50.74;100872.78;5265514;28;20036;-76
2022/09/03 01:11:39;;;;;;;;;;;;;;;16.52;48.38;100877.69;5265560;28;20060;-77
2022/09/03 01:14:42;;;;;;;9.10;3.60;;;;;;;16.29;49.85;100871.44;5265182;28;20253;-77
2022/09/03 01:17:35;;;;;;;8.27;2.67;;;;;;;16.23;50.42;100869.91;5247847;28;20099;-77
2022/09/03 01:20:06;;;;;;;8.35;3.10;;;;;;;15.89;51.70;100861.44;5268904;28;20036;-77
2022/09/03 01:23:05;;;;;;;5.90;2.87;;;;;;;16.01;51.17;100866.28;5285889;28;20036;-77
2022/09/03 01:25:46;;;;;;;5.85;3.03;;;;;;;15.85;51.85;100868.56;5285819;28;20028;-78
2022/09/03 01:29:01;;;;;;;7.55;3.30;;;;;;;16.12;50.90;100868.56;5285663;28;20032;-77
2022/09/03 01:32:07;;;;;;;6.90;2.70;;;;;;;16.02;51.00;100875.91;5264964;28;20037;-76
2022/09/03 01:34:54;;;;;;;11.40;3.15;;;;;;;16.00;52.13;100875.97;5278387;28;20041;-77
2022/09/03 01:37:44;;;;;;;6.05;3.47;;;;;;;15.83;52.63;100873.03;5285651;28;20028;-77
2022/09/03 01:40:34;;;;;;;12.88;3.53;;;;;;;15.88;52.41;100871.09;5285386;28;20379;-77
2022/09/03 01:43:39;;;;;;;7.18;3.65;;;;;;;15.63;52.58;100878.91;5284377;28;20505;-77
2022/09/03 01:46:22;;;;;;;7.60;3.45;;;;;;;15.47;53.02;100870.63;5285176;28;20101;-78
2022/09/03 01:48:53;;;;;;;7.45;4.32;;;;;;;15.53;53.48;100875.72;5283602;28;20100;-77
2022/09/03 01:51:29;;;;;;;6.23;3.53;;;;;;;15.53;53.78;100874.84;5284817;28;20036;-77
2022/09/03 01:54:15;;;;;;;9.23;4.18;;;;;;;15.48;53.09;100875.84;5283968;28;20036;-76
2022/09/03 01:57:05;;;;;;;5.97;3.35;;;;;;;15.48;53.57;100875.00;5284864;28;20056;-77
2022/09/03 01:59:49;;;;;;;11.23;3.63;;;;;;;15.51;53.76;100872.28;5285188;28;20032;-78
2022/09/03 02:02:24;;;;;;;7.47;3.45;;;;;;;15.41;53.46;100874.34;5284118;28;20043;-77
2022/09/03 02:04:58;;;;;;;11.75;3.90;;;;;;;15.66;53.54;100879.69;5283920;28;20031;-77
2022/09/03 02:07:33;;;;;;;12.20;4.82;;;;;;;15.45;52.74;100880.34;5284921;28;20075;-78
2022/09/03 02:10:14;;;;;;;10.45;4.47;;;;;;;15.43;52.73;100885.66;5284643;28;20044;-77
2022/09/03 02:12:52;;;;;;;12.05;5.13;;;;;;;15.24;53.55;100874.84;5284797;28;20352;-78
2022/09/03 02:15:24;;;;;;;7.55;4.45;;;;;;;15.45;54.10;100867.22;5284897;28;20028;-78
2022/09/03 02:18:01;;;;;;;7.68;4.63;;;;;;;15.45;54.80;100872.47;5284619;28;20036;-79
2022/09/03 02:20:33;;;;;;;7.25;3.70;;;;;;;15.04;54.47;100864.13;5284827;28;20032;-78
2022/09/03 02:23:04;;;;;;;9.68;4.95;;;;;;;15.34;54.36;100869.31;5284491;28;20392;-78
2022/09/03 02:25:42;;;;;;;11.60;4.10;;;;;;;14.97;55.55;100859.94;5284694;28;20040;-78
2022/09/03 02:28:14;;;;;;;15.80;4.13;;;;;;;14.90;55.30;100869.75;5284859;28;20108;-78
2022/09/03 02:30:47;;;;;;;8.57;4.07;;;;;;;14.93;55.05;100870.53;5284467;28;20029;-78
2022/09/03 02:33:19;;;;;;;11.05;4.00;;;;;;;14.85;55.21;100869.03;5284517;28;20387;-78
2022/09/03 02:35:50;;;;;;;11.50;4.47;;;;;;;14.90;55.71;100873.25;5284662;28;20025;-78
2022/09/03 02:38:24;;;;;;;6.35;3.97;;;;;;;15.04;55.42;100877.25;5284084;28;20029;-78
2022/09/03 02:40:55;;;;;;;12.18;3.85;;;;;;;15.20;55.65;100873.25;5284231;28;20033;-78
2022/09/03 02:43:38;;;;;;;8.63;4.30;;;;;;;14.83;55.47;100865.59;5284028;28;20399;-76
2022/09/03 02:46:16;;;;;;;12.23;4.68;;;;;;;15.06;55.74;100871.03;5284173;28;20031;-76
2022/09/03 02:48:47;;;;;;;11.95;4.78;;;;;;;14.94;56.58;100861.75;5283314;28;20032;-77
2022/09/03 02:51:19;;;;;;;9.90;4.20;;;;;;;15.01;56.06;100862.44;5282802;28;20039;-77
2022/09/03 02:53:50;;;;;;;10.10;4.60;;;;;;;15.01;55.92;100866.84;5284039;28;20111;-77
2022/09/03 02:56:26;;;;;;;9.10;4.70;;;;;;;14.93;55.93;100859.19;5284031;28;20375;-77
2022/09/03 02:58:59;;;;;;;10.05;3.85;;;;;;;14.80;56.04;100863.06;5284191;28;20040;-77
2022/09/03 03:01:30;;;;;;;8.45;4.50;;;;;;;14.80;56.32;100861.31;5283812;28;20535;-76
2022/09/03 03:04:02;;;;;;;9.23;4.67;;;;;;;14.73;56.33;100862.38;5283707;28;20029;-76
2022/09/03 03:06:34;;;;;;;9.85;5.22;;;;;;;14.81;56.74;100865.66;5283804;28;20035;-76
2022/09/03 03:09:05;;;;;;;11.03;5.10;;;;;;;14.63;56.70;100864.41;5283400;28;20024;-76
2022/09/03 03:11:39;;;;;;;9.63;5.00;;;;;;;14.69;56.66;100871.25;5265492;28;20052;-76
2022/09/03 03:14:10;;;;;;;8.38;4.57;;;;;;;14.84;56.79;100873.41;5283521;28;20426;-75
2022/09/03 03:16:41;;;;;;;9.50;5.03;;;;;;;14.72;56.85;100865.91;5282955;28;20107;-75
2022/09/03 03:19:13;;;;;;;11.93;4.87;;;;;;;14.70;56.31;100868.59;5282941;28;20040;-77
2022/09/03 03:21:44;;;;;;;12.30;5.30;;;;;;;14.69;56.61;100868.63;5283403;28;20111;-77
2022/09/03 03:24:16;;;;;;;7.80;4.63;;;;;;;14.51;57.20;100862.97;5283124;28;20129;-77
2022/09/03 03:26:47;;;;;;;9.63;4.60;;;;;;;14.69;57.51;100864.22;5283325;28;20063;-77
2022/09/03 03:29:19;;;;;;;8.97;5.00;;;;;;;14.31;57.05;100863.53;5283438;28;20507;-77
2022/09/03 03:31:51;;;;;;;10.63;4.97;;;;;;;14.33;57.95;100863.44;5283197;28;20487;-77
2022/09/03 03:34:22;;;;;;;6.17;4.10;;;;;;;14.50;58.35;100861.22;5281977;28;20097;-77
2022/09/03 03:36:55;;;;;;;7.80;4.77;;;;;;;14.31;57.54;100860.91;5281983;28;20032;-77
2022/09/03 03:39:26;;;;;;;10.02;6.80;;;;;;;14.29;57.64;100869.69;5283234;28;20028;-77
2022/09/03 03:41:58;;;;;;;13.70;5.60;;;;;;;14.32;57.91;100859.13;5282960;28;20093;-77
2022/09/03 03:44:29;;;;;;;10.33;4.57;;;;;;;14.30;57.81;100853.91;5283131;28;20040;-77
2022/09/03 03:47:01;;;;;;;13.50;5.17;;;;;;;14.29;58.08;100861.81;5283124;28;20348;-78
2022/09/03 03:49:33;;;;;;;8.98;4.22;;;;;;;14.37;58.49;100858.09;5282515;28;20033;-77
2022/09/03 03:52:04;;;;;;;12.23;5.23;;;;;;;14.26;58.66;100868.00;5282920;28;20074;-77
2022/09/03 03:54:35;;;;;;;10.10;4.97;;;;;;;14.19;57.81;100863.84;5283052;28;20078;-77
2022/09/03 03:57:07;;;;;;;9.97;5.23;;;;;;;14.38;57.75;100864.22;5281347;28;20502;-78
2022/09/03 03:59:38;;;;;;;9.07;5.17;;;;;;;14.31;57.56;100873.13;5281508;28;20028;-77
2022/09/03 04:02:10;;;;;;;12.67;4.93;;;;;;;14.25;58.10;100871.53;5282183;28;20033;-77
2022/09/03 04:04:41;;;;;;;9.63;5.50;;;;;;;14.09;58.09;100863.22;5282610;28;20429;-76
2022/09/03 04:07:13;;;;;;;12.73;4.70;;;;;;;14.11;58.12;100866.66;5282824;28;20107;-76
2022/09/03 04:09:44;;;;;;;8.43;4.27;;;;;;;14.06;58.05;100862.44;5282502;28;20547;-75
2022/09/03 04:12:16;;;;;;;12.07;5.03;;;;;;;14.07;58.85;100862.41;5281079;28;20033;-76
2022/09/03 04:14:48;;;;;;;8.75;5.05;;;;;;;14.01;58.95;100867.81;5282808;28;20086;-77
2022/09/03 04:17:19;;;;;;;7.33;4.03;;;;;;;14.11;59.25;100865.81;5282495;28;20032;-77
2022/09/03 04:19:50;;;;;;;12.03;5.90;;;;;;;13.99;58.79;100859.09;5282349;28;20391;-76
2022/09/03 04:22:22;;;;;;;8.10;3.70;;;;;;;14.15;59.02;100863.06;5282936;28;20044;-77
2022/09/03 04:24:53;;;;;;;8.13;4.03;;;;;;;14.12;59.29;100859.63;5282344;28;20024;-77
2022/09/03 04:27:25;;;;;;;12.83;4.47;;;;;;;14.03;59.20;100866.00;5284313;28;20052;-77
2022/09/03 04:29:56;;;;;;;8.47;3.83;;;;;;;14.02;59.16;100865.16;5286898;28;20032;-77
2022/09/03 04:35:19;;;;;;;11.10;4.20;;;;;;;13.95;59.71;100854.84;5286600;28;20044;-77
2022/09/03 04:37:53;;;;;;;5.63;3.65;;;;;;;13.92;59.20;100854.94;5286789;28;20070;-76
2022/09/03 04:40:25;;;;;;;9.23;4.35;;;;;;;13.90;59.26;100854.97;5286752;28;20033;-76
2022/09/03 04:43:00;;;;;;;8.20;4.13;;;;;;;14.09;59.58;100852.72;5285361;28;20094;-76
2022/09/03 04:45:31;;;;;;;8.52;4.43;;;;;;;13.90;58.63;100854.97;5285727;28;20166;-77
2022/09/03 04:48:03;;;;;;;5.93;3.70;;;;;;;13.99;59.47;100853.84;5286014;28;20107;-78
2022/09/03 04:50:35;;;;;;;6.80;4.00;;;;;;;13.92;59.36;100868.88;5285997;28;20036;-76
2022/09/03 04:53:06;;;;;;;10.63;4.40;;;;;;;13.97;59.71;100863.53;5286375;28;20140;-74
2022/09/03 04:55:38;;;;;;;7.87;4.80;;;;;;;14.04;60.26;100867.72;5286354;28;20107;-75
2022/09/03 04:58:09;;;;;;;12.13;4.77;;;;;;;14.04;59.73;100872.97;5286143;28;20468;-75
2022/09/03 05:00:40;;;;;;;6.50;4.67;;;;;;;14.08;59.97;100864.09;5286000;28;20044;-75
2022/09/03 05:03:12;;;;;;;7.93;5.07;;;;;;;14.13;60.44;100869.22;5286094;28;20044;-75
2022/09/03 05:05:54;;;;;;;9.70;4.67;;;;;;;14.08;59.77;100863.25;5284329;28;20065;-75
2022/09/03 05:08:25;;;;;;;9.18;5.40;;;;;;;13.95;60.11;100860.94;5265311;28;20302;-76
2022/09/03 05:10:59;;;;;;;10.03;5.00;;;;;;;13.94;60.42;100864.50;5264498;28;20088;-75
2022/09/03 05:13:32;;;;;;;11.82;5.30;;;;;;;13.88;59.59;100862.00;5264950;28;20108;-75
2022/09/03 05:16:06;;;;;;;8.95;4.80;;;;;;;14.09;60.54;100870.19;5264900;28;20037;-76
2022/09/03 05:18:38;;;;;;;9.13;4.78;;;;;;;14.00;60.51;100866.91;5263224;28;20128;-76
2022/09/03 05:21:12;;;;;;;10.65;5.20;;;;;;;13.93;59.73;100861.91;5265128;28;20037;-76
2022/09/03 05:23:45;;;;;;;10.10;5.53;;;;;;;13.95;59.57;100866.19;5284979;28;20044;-76
2022/09/03 05:26:25;;;;;;;8.35;4.80;;;;;;;14.07;60.27;100862.41;5285558;28;20379;-75
2022/09/03 05:29:00;;;;;;;7.88;4.95;;;;;;;13.95;59.86;100863.56;5285322;28;20040;-75
2022/09/03 05:31:31;;;;;;;9.63;4.85;;;;;;;13.97;60.25;100867.00;5285509;28;20028;-74
2022/09/03 05:34:04;;;;;;;11.53;5.23;;;;;;;14.16;61.07;100864.75;5284598;28;20482;-75
2022/09/03 05:36:37;;;;;;;15.23;5.47;;;;;;;13.98;60.24;100865.25;5285351;28;20063;-75
2022/09/03 05:39:08;;;;;;;13.73;5.88;;;;;;;14.11;60.46;100864.03;5284407;28;20462;-75
2022/09/03 05:41:40;;;;;;;13.07;5.40;;;;;;;14.08;59.92;100864.09;5285386;28;20064;-75
2022/09/03 05:44:11;;;;;;;9.17;5.53;;;;;;;14.13;60.53;100870.09;5285179;28;20039;-75
2022/09/03 05:46:42;;;;;;;11.93;5.20;;;;;;;14.27;60.22;100864.50;5285117;28;20059;-75
2022/09/03 05:49:14;;;;;;;10.27;5.53;;;;;;;14.22;59.08;100863.75;5284700;28;20085;-75
2022/09/03 05:51:45;;;;;;;12.83;6.17;;;;;;;14.36;60.75;100858.13;5279309;28;20036;-75
2022/09/03 05:54:16;;;;;;;11.90;5.40;;;;;;;14.52;59.46;100863.81;5281117;28;20040;-75
2022/09/03 05:56:48;;;;;;;12.13;5.53;;;;;;;14.64;60.32;100863.50;5281867;28;20029;-75
2022/09/03 05:59:20;;;;;;;16.05;5.45;;;;;;;14.72;60.09;100871.16;5282568;28;20457;-75
2022/09/03 06:01:51;;;;;;;9.53;4.70;;;;;;;14.77;58.79;100864.88;5283542;28;20479;-75
2022/09/03 06:04:23;;;;;;;14.43;5.33;;;;;;;14.84;59.55;100870.78;5284179;28;20524;-75
2022/09/03 06:06:55;;;;;;;9.30;5.50;;;;;;;14.99;58.46;100866.00;5281257;28;20102;-75
2022/09/03 06:09:26;;;;;;;11.05;5.57;;;;;;;15.18;58.57;100869.78;5284078;28;20024;-75
2022/09/03 06:11:57;;;;;;;8.50;5.00;;;;;;;15.29;59.28;100872.09;5283300;28;20438;-75
2022/09/03 06:14:29;;;;;;;15.27;6.53;;;;;;;15.35;56.88;100866.66;5282937;28;20036;-75
2022/09/03 06:17:00;;;;;;;13.43;6.97;;;;;;;15.52;58.97;100868.75;5283129;28;20111;-75
2022/09/03 06:19:32;;;;;;;11.00;5.63;;;;;;;15.58;58.69;100872.94;5283321;28;20029;-75
2022/09/03 06:22:03;;;;;;;12.43;6.53;;;;;;;15.64;58.67;100875.38;5279737;28;20047;-74
2022/09/03 06:24:34;;;;;;;12.07;5.23;;;;;;;15.78;56.75;100878.44;5282714;28;20471;-75
2022/09/03 06:27:07;;;;;;;11.77;5.97;;;;;;;15.82;56.59;100874.78;5283284;28;20413;-75
2022/09/03 06:29:38;;;;;;;;;;;;;;;16.00;56.15;100875.97;5282304;28;20082;-75
2022/09/03 06:32:10;;;;;;;12.90;7.55;;;;;;;16.04;58.61;100876.72;5275461;28;19924;-75
2022/09/03 06:34:41;;;;;;;14.70;6.27;;;;;;;16.19;56.17;100870.91;5265857;28;20029;-74
2022/09/03 06:37:13;;;;;;;15.33;6.33;;;;;;;16.34;56.07;100866.00;5268171;28;20044;-75
2022/09/03 06:39:45;;;;;;;14.80;6.37;;;;;;;16.39;55.08;100872.84;5282087;28;20074;-75
2022/09/03 06:42:17;;;;;;;14.80;6.13;;;;;;;16.55;54.55;100873.16;5282656;28;20024;-75
2022/09/03 06:44:50;;;;;;;12.82;7.05;;;;;;;16.64;54.70;100877.22;5283489;28;20082;-75
2022/09/03 06:47:21;;;;;;;13.38;6.25;;;;;;;16.76;55.92;100875.94;5281007;28;20052;-75
2022/09/03 06:49:52;;;;;;;14.73;7.67;;;;;;;16.82;54.93;100872.19;5281945;28;20060;-75
2022/09/03 06:52:24;;;;;;;16.13;7.30;;;;;;;16.91;54.97;100885.03;5282547;28;20452;-76
2022/09/03 06:54:55;;;;;;;13.30;7.50;;;;;;;16.98;55.24;100875.13;5281645;28;20043;-77
2022/09/03 06:57:27;;;;;;;11.67;6.77;;;;;;;17.00;53.64;100868.03;5280728;28;20045;-75
2022/09/03 06:59:58;;;;;;;12.67;6.97;;;;;;;17.10;54.29;100866.78;5282514;28;20444;-76
2022/09/03 07:02:30;;;;;;;12.60;6.53;;;;;;;17.20;53.25;100875.19;5280929;28;20054;-75
2022/09/03 07:05:01;;;;;;;12.40;6.90;;;;;;;17.33;53.87;100876.41;5282867;28;20029;-75
2022/09/03 07:07:33;;;;;;;14.40;6.63;;;;;;;17.35;54.43;100868.44;5283351;28;20105;-76
2022/09/03 07:10:05;;;;;;;10.82;5.70;;;;;;;17.53;52.25;100877.38;5281826;28;20454;-74
2022/09/03 07:12:36;;;;;;;12.57;5.97;;;;;;;17.61;51.88;100876.16;5283267;28;20379;-75
2022/09/03 07:15:08;;;;;;;12.60;5.13;;;;;;;17.61;53.43;100881.44;5283479;28;20055;-75
2022/09/03 07:17:40;;;;;;;10.98;5.13;;;;;;;17.72;51.50;100880.13;5282634;28;20149;-75
2022/09/03 07:20:11;;;;;;;9.83;4.60;;;;;;;17.74;53.35;100886.19;5282867;28;20352;-75
2022/09/03 07:22:42;;;;;;;10.67;3.83;;;;;;;17.81;53.35;100871.84;5283278;28;20037;-75
2022/09/03 07:25:14;;;;;;;11.53;3.63;;;;;;;17.84;51.57;100877.84;5282715;28;20024;-75
2022/09/03 07:27:46;;;;;;;9.83;3.33;;;;;;;17.91;50.90;100873.19;5283303;28;20510;-74
2022/09/03 07:30:19;;;;;;;11.75;2.90;;;;;;;17.93;50.19;100884.53;5283087;28;20035;-75
2022/09/03 07:32:50;;;;;;;8.32;2.53;;;;;;;17.95;51.06;100882.72;5283102;28;20136;-75
2022/09/03 07:35:24;;;;;;;6.43;2.60;;;;;;;17.92;50.31;100872.28;5282742;28;20108;-76
2022/09/03 07:37:55;;;;;;;7.53;2.33;;;;;;;17.89;51.02;100880.31;5281823;28;20028;-76
2022/09/03 07:40:28;;;;;;;5.03;2.00;;;;;;;17.79;50.60;100890.38;5265164;28;20040;-75
2022/09/03 07:43:02;;;;;;;4.28;2.60;;;;;;;17.91;51.49;100882.91;5282877;28;20035;-75
2022/09/03 07:45:34;;;;;;;6.75;2.20;;;;;;;18.15;51.06;100883.63;5281383;28;20075;-75
2022/09/03 07:48:05;;;;;;;4.80;2.00;;;;;;;18.31;49.92;100884.69;5282948;28;20404;-75
2022/09/03 07:50:38;;;;;;;4.30;2.00;;;;;;;18.47;50.60;100879.59;5281937;28;20302;-75
2022/09/03 07:53:10;;;;;;;7.68;2.22;;;;;;;18.71;50.44;100890.00;5282812;28;20032;-74
2022/09/03 07:55:43;;;;;;;8.90;2.03;;;;;;;18.82;49.18;100882.44;5282996;28;20380;-74
2022/09/03 07:58:14;;;;;;;5.75;1.70;;;;;;;18.95;50.11;100886.25;5282756;28;20039;-75
2022/09/03 08:00:47;;;;;;;4.90;1.83;;;;;;;19.11;47.67;100888.16;5282969;28;20033;-76
2022/09/03 08:03:18;;;;;;;3.90;1.70;;;;;;;19.24;47.54;100888.44;5280980;28;20475;-74
2022/09/03 08:05:50;;;;;;;2.60;1.83;;;;;;;19.42;47.82;100898.16;5282703;28;20075;-75
2022/09/03 08:08:22;;;;;;;4.53;1.97;;;;;;;19.46;48.40;100889.16;5281328;28;20100;-75
2022/09/03 08:10:53;;;;;;;;;;;;;;;19.68;47.88;100894.22;5282606;28;20131;-75
2022/09/03 08:13:27;;;;;;;10.30;2.00;;;;;;;19.76;48.12;100885.13;5282584;28;19920;-75
2022/09/03 08:16:00;;;;;;;6.10;1.90;;;;;;;19.79;47.36;100895.53;5281156;28;20086;-75
2022/09/03 08:18:36;;;;;;;4.00;2.10;;;;;;;20.03;46.77;100889.00;5282112;28;20036;-75
2022/09/03 08:21:10;;;;;;;3.88;1.88;;;;;;;20.19;48.04;100893.53;5280881;28;20149;-74
2022/09/03 08:23:44;;;;;;;5.40;1.90;;;;;;;20.24;46.90;100894.16;5282492;28;20055;-75
2022/09/03 08:26:17;;;;;;;8.18;2.00;;;;;;;20.42;46.65;100904.72;5282258;28;20094;-75
2022/09/03 08:28:51;;;;;;;10.68;2.15;;;;;;;20.44;45.54;100903.69;5282540;28;20044;-74
2022/09/03 08:31:24;;;;;;;11.32;2.83;;;;;;;20.47;47.58;100902.69;5282453;28;20028;-75
2022/09/03 08:33:57;;;;;;;4.32;1.88;;;;;;;20.66;44.84;100892.84;5280941;28;20078;-75
2022/09/03 08:36:30;;;;;;;4.07;1.90;;;;;;;20.68;44.97;100898.91;5282156;28;20085;-75
2022/09/03 08:39:09;;;;;;;6.32;2.78;;;;;;;20.91;45.10;100899.47;5281856;28;20032;-74
2022/09/03 08:42:31;;;;;;;6.20;2.28;;;;;;;21.07;44.85;100910.09;5282544;28;20048;-74
2022/09/03 08:45:07;;;;;;;6.15;1.85;;;;;;;21.17;45.03;100916.63;5238023;28;20044;-76
2022/09/03 08:48:12;;;;;;;4.53;1.50;;;;;;;21.30;45.02;100900.88;5238163;28;20144;-75
2022/09/03 08:50:51;;;;;;;6.32;1.40;;;;;;;21.23;42.28;100907.47;5273171;28;20040;-74
2022/09/03 08:53:40;;;;;;;6.63;1.90;;;;;;;21.43;43.14;100909.84;5281945;28;20031;-74
2022/09/03 08:56:26;;;;;;;4.53;2.05;;;;;;;21.36;42.18;100903.16;5281998;28;20097;-74
2022/09/03 08:59:00;;;;;;;7.22;2.00;;;;;;;21.40;41.84;100901.22;5282199;28;20119;-76
2022/09/03 09:01:49;;;;;;;4.60;1.98;;;;;;;21.55;42.76;100899.53;5281274;28;20093;-74
2022/09/03 09:04:54;;;;;;;13.00;1.92;;;;;;;21.72;42.12;100906.50;5280522;28;20050;-76
2022/09/03 09:07:34;;;;;;;5.80;1.80;;;;;;;21.83;42.98;100906.72;5281932;28;20372;-75
2022/09/03 09:10:42;;;;;;;3.92;1.65;;;;;;;22.22;42.42;100905.34;5282145;28;20084;-75
2022/09/03 09:13:31;;;;;;;8.65;1.90;;;;;;;22.65;41.84;100912.53;5281006;28;20058;-75
2022/09/03 09:16:20;;;;;;;6.78;1.50;;;;;;;23.34;40.16;100910.84;5288452;28;20056;-75
2022/09/03 09:18:54;;;;;;;5.10;2.00;;;;;;;24.31;37.32;100916.91;5288304;28;20055;-75
2022/09/03 09:21:32;;;;;;;6.00;2.25;;;;;;;25.09;36.63;100911.44;5285902;28;20150;-76
2022/09/03 09:24:11;;;;;;;7.32;1.90;;;;;;;25.75;36.80;100912.94;5285785;28;20078;-75
2022/09/03 09:26:44;;;;;;;3.35;1.85;;;;;;;26.50;36.50;100909.91;5285835;28;20024;-75
2022/09/03 09:29:16;;;;;;;9.27;2.63;;;;;;;26.89;34.61;100907.75;5285299;28;20040;-77
2022/09/03 09:31:48;;;;;;;5.88;2.05;;;;;;;27.51;32.84;100907.28;5285556;28;20032;-76
2022/09/03 09:34:19;;;;;;;;;;;;;;;28.88;31.33;100906.38;5285910;28;20475;-76
2022/09/03 09:36:53;;;;;;;4.03;1.67;;;;;;;28.31;31.50;100906.78;5285880;28;19950;-78
2022/09/03 09:39:25;;;;;;;5.18;1.63;;;;;;;28.43;32.62;100904.03;5285089;28;20112;-76
2022/09/03 09:42:14;;;;;;;;;;;;;;;30.06;31.60;100902.91;5285529;28;20121;-77
2022/09/03 09:44:46;;;;;;;5.53;1.70;;;;;;;28.76;29.12;100907.50;5283826;28;19912;-76
2022/09/03 09:47:34;;;;;;;;;;;;;;;30.49;30.00;100909.59;5286092;28;20388;-78
2022/09/03 09:50:19;;;;;;;5.70;1.77;;;;;;;29.70;29.57;100913.34;5284862;28;19908;-76
2022/09/03 09:53:04;;;;;;;3.45;1.77;;;;;;;29.60;29.72;100907.13;5285231;28;20032;-75
2022/09/03 09:55:37;;;;;;;6.72;1.90;;;;;;;30.31;27.75;100905.94;5285112;28;20029;-76
2022/09/03 09:58:10;;;;;;;9.88;2.00;;;;;;;30.17;29.47;100918.00;5283831;28;20361;-76
2022/09/03 10:00:54;;;;;;;4.05;1.92;;;;;;;30.75;28.33;100908.94;5283430;28;20044;-77
2022/09/03 10:03:28;;;;;;;8.07;2.10;;;;;;;30.40;26.67;100907.81;5285547;28;20078;-76
2022/09/03 10:06:52;;;;;;;6.22;2.53;;;;;;;30.80;25.83;100912.03;5285180;28;20116;-75
2022/09/03 10:09:26;;;;;;;7.43;1.98;;;;;;;31.97;27.33;100911.25;5286559;28;20037;-76
2022/09/03 10:12:18;;;;;;;;;;;;;;;33.34;25.84;100906.94;5281689;28;20130;-76
2022/09/03 10:15:02;;;;;;;5.60;2.10;;;;;;;32.25;24.82;100902.22;5284573;28;19912;-77
2022/09/03 10:17:39;;;;;;;3.95;1.90;;;;;;;32.36;27.53;100893.84;5284645;28;20025;-77
2022/09/03 10:20:26;;;;;;;8.27;2.10;;;;;;;31.99;24.39;100898.47;5284317;28;20036;-76
2022/09/03 10:23:04;;;;;;;10.50;2.22;;;;;;;32.54;24.48;100891.94;5284610;28;20063;-76
2022/09/03 10:25:39;;;;;;;8.20;2.00;;;;;;;32.53;25.86;100887.53;5284109;28;20093;-77
2022/09/03 10:28:10;;;;;;;7.95;2.08;;;;;;;33.12;24.35;100883.22;5284334;28;20367;-77
2022/09/03 10:31:18;;;;;;;5.97;2.20;;;;;;;33.54;22.25;100888.56;5282791;28;20027;-76
2022/09/03 10:33:59;;;;;;;5.97;2.08;;;;;;;33.14;24.92;100886.63;5284419;28;20029;-76
2022/09/03 10:36:39;;;;;;;5.75;2.20;;;;;;;32.84;25.22;100889.72;5284453;28;20488;-76
2022/09/03 10:39:10;;;;;;;4.20;1.80;;;;;;;33.67;24.32;100882.66;5283771;28;20033;-76
2022/09/03 10:42:05;;;;;;;7.10;2.33;;;;;;;34.19;25.03;100888.72;5284263;28;20490;-76
2022/09/03 10:44:38;;;;;;;7.75;2.20;;;;;;;34.38;23.22;100888.38;5284231;28;20433;-76
2022/09/03 10:47:18;;;;;;;3.65;2.10;;;;;;;33.56;22.21;100885.69;5283961;28;20127;-75
2022/09/03 10:49:55;;;;;;;6.88;2.40;;;;;;;33.74;23.08;100889.09;5283599;28;20464;-75
2022/09/03 10:52:51;;;;;;;5.15;2.05;;;;;;;34.10;23.55;100890.59;5282572;28;20040;-76
2022/09/03 10:55:35;;;;;;;6.15;2.50;;;;;;;34.28;22.37;100883.16;5284096;28;20032;-76
2022/09/03 10:58:23;;;;;;;3.00;2.00;;;;;;;34.72;21.85;100883.69;5284143;28;20036;-76
2022/09/03 11:01:03;;;;;;;6.80;2.08;;;;;;;35.17;23.99;100884.84;5283374;28;20036;-76
2022/09/03 11:03:58;;;;;;;4.63;2.00;;;;;;;35.83;22.38;100882.53;5283841;28;20032;-76
2022/09/03 11:06:41;;;;;;;7.28;2.10;;;;;;;35.73;20.98;100884.63;5282438;28;20025;-76
2022/09/03 11:09:41;;;;;;;7.22;2.53;;;;;;;36.50;21.28;100892.53;5283290;28;20036;-75
2022/09/03 11:12:24;;;;;;;7.10;2.22;;;;;;;36.28;21.17;100897.03;5227954;28;20060;-76
2022/09/03 11:15:04;;;;;;;8.07;2.50;;;;;;;36.33;20.75;100889.16;5279076;28;20040;-76
2022/09/03 11:17:41;;;;;;;4.63;2.50;;;;;;;36.86;19.03;100889.03;5262686;28;20085;-78
2022/09/03 11:20:23;;;;;;;5.55;2.63;;;;;;;36.90;21.84;100883.25;5260843;28;20025;-76
2022/09/03 11:22:59;;;;;;;8.20;2.33;;;;;;;36.28;19.81;100886.16;5262717;28;20040;-76
2022/09/03 11:25:36;;;;;;;4.72;2.20;;;;;;;36.30;19.52;100886.81;5267339;28;20033;-76
2022/09/03 11:28:23;;;;;;;5.45;2.50;;;;;;;36.69;20.13;100882.09;5282095;28;20391;-77
2022/09/03 11:31:29;;;;;;;4.32;2.50;;;;;;;36.94;20.54;100876.41;5283193;28;20094;-77
2022/09/03 11:34:12;;;;;;;3.63;2.45;;;;;;;37.26;20.42;100875.09;5283185;28;20468;-76
2022/09/03 11:36:44;;;;;;;5.60;2.70;;;;;;;37.61;20.19;100880.63;5282592;28;20024;-77
2022/09/03 11:39:32;;;;;;;4.78;2.60;;;;;;;38.36;19.56;100872.88;5283103;28;20035;-77
2022/09/03 11:42:11;;;;;;;15.20;3.33;;;;;;;38.43;20.41;100871.03;5281417;28;20032;-77
2022/09/03 11:44:44;;;;;;;6.70;2.50;;;;;;;37.80;18.41;100867.44;5283210;28;20463;-77
2022/09/03 11:47:24;;;;;;;5.53;2.88;;;;;;;37.44;19.96;100865.66;5283017;28;20380;-77
2022/09/03 11:50:07;;;;;;;4.70;2.67;;;;;;;37.48;20.13;100864.22;5282507;28;20460;-77
2022/09/03 11:52:39;;;;;;;3.05;2.45;;;;;;;37.20;19.78;100857.69;5282754;28;20051;-78
2022/09/03 11:55:10;;;;;;;7.57;2.60;;;;;;;37.70;21.92;100862.34;5283088;28;20032;-76
2022/09/03 11:57:42;;;;;;;3.88;2.75;;;;;;;36.85;19.60;100864.78;5282502;28;20055;-76
2022/09/03 12:00:21;;;;;;;5.45;3.03;;;;;;;37.15;19.75;100865.53;5282892;28;20071;-78
2022/09/03 12:03:01;;;;;;;11.27;3.03;;;;;;;37.08;20.78;100866.50;5282492;28;20030;-75
2022/09/03 12:05:59;;;;;;;3.67;2.45;;;;;;;37.12;20.70;100859.66;5282892;28;20436;-76
2022/09/03 12:08:30;;;;;;;6.03;3.15;;;;;;;36.83;20.05;100858.72;5282489;28;20105;-76
2022/09/03 12:11:38;;;;;;;4.80;2.72;;;;;;;37.57;20.37;100863.03;5282058;28;20496;-77
2022/09/03 12:14:37;;;;;;;7.60;3.03;;;;;;;37.61;20.28;100860.78;5282230;28;20478;-76
2022/09/03 12:17:27;;;;;;;8.50;3.00;;;;;;;37.98;19.82;100865.06;5282693;28;20028;-76